sensor_id;sensor_type;location;lat;lon;timestamp;P1;durP1;ratioP1;P2;durP2;ratioP2
62102;SDS011;48077;48.104;11.702;2022-10-16T00:00:36;2.65;;;1.63;;
62102;SDS011;48077;48.104;11.702;2022-10-16T00:03:01;1.92;;;1.30;;
62102;SDS011;48077;48.104;11.702;2022-10-16T00:05:25;2.72;;;1.48;;
62102;SDS011;48077;48.104;11.702;2022-10-16T00:07:50;2.20;;;1.52;;
62102;SDS011;48077;48.104;11.702;2022-10-16T00:10:13;2.83;;;1.58;;
62102;SDS011;48077;48.104;11.702;2022-10-16T00:12:37;3.00;;;1.80;;
62102;SDS011;48077;48.104;11.702;2022-10-16T00:15:00;2.65;;;1.50;;
62102;SDS011;48077;48.104;11.702;2022-10-16T00:17:24;3.13;;;1.67;;
62102;SDS011;48077;48.104;11.702;2022-10-16T00:19:47;3.75;;;1.60;;
62102;SDS011;48077;48.104;11.702;2022-10-16T00:22:10;2.72;;;1.50;;
62102;SDS011;48077;48.104;11.702;2022-10-16T00:24:34;3.67;;;1.90;;
62102;SDS011;48077;48.104;11.702;2022-10-16T00:26:57;3.08;;;1.60;;
62102;SDS011;48077;48.104;11.702;2022-10-16T00:29:20;4.13;;;1.80;;
62102;SDS011;48077;48.104;11.702;2022-10-16T00:31:44;4.43;;;1.98;;
62102;SDS011;48077;48.104;11.702;2022-10-16T00:34:07;2.65;;;1.50;;
62102;SDS011;48077;48.104;11.702;2022-10-16T00:36:31;2.80;;;1.58;;
62102;SDS011;48077;48.104;11.702;2022-10-16T00:38:55;2.80;;;1.48;;
62102;SDS011;48077;48.104;11.702;2022-10-16T00:41:24;3.33;;;1.33;;
62102;SDS011;48077;48.104;11.702;2022-10-16T00:46:15;2.40;;;1.40;;
62102;SDS011;48077;48.104;11.702;2022-10-16T00:48:42;3.77;;;1.20;;
62102;SDS011;48077;48.104;11.702;2022-10-16T00:51:11;3.75;;;1.83;;
62102;SDS011;48077;48.104;11.702;2022-10-16T00:53:34;3.67;;;1.80;;
62102;SDS011;48077;48.104;11.702;2022-10-16T00:55:58;3.45;;;1.52;;
62102;SDS011;48077;48.104;11.702;2022-10-16T00:58:21;3.40;;;1.70;;
62102;SDS011;48077;48.104;11.702;2022-10-16T01:00:45;3.05;;;1.58;;
62102;SDS011;48077;48.104;11.702;2022-10-16T01:03:26;1.80;;;1.10;;
62102;SDS011;48077;48.104;11.702;2022-10-16T01:05:51;3.13;;;1.50;;
62102;SDS011;48077;48.104;11.702;2022-10-16T01:08:49;2.28;;;1.42;;
62102;SDS011;48077;48.104;11.702;2022-10-16T01:11:33;2.75;;;1.45;;
62102;SDS011;48077;48.104;11.702;2022-10-16T01:14:05;5.85;;;1.52;;
62102;SDS011;48077;48.104;11.702;2022-10-16T01:16:35;4.07;;;1.50;;
62102;SDS011;48077;48.104;11.702;2022-10-16T01:19:14;3.25;;;1.67;;
62102;SDS011;48077;48.104;11.702;2022-10-16T01:21:43;2.15;;;1.27;;
62102;SDS011;48077;48.104;11.702;2022-10-16T01:24:17;2.72;;;1.30;;
62102;SDS011;48077;48.104;11.702;2022-10-16T01:29:15;2.33;;;1.30;;
62102;SDS011;48077;48.104;11.702;2022-10-16T01:31:44;3.00;;;1.50;;
62102;SDS011;48077;48.104;11.702;2022-10-16T01:34:14;3.13;;;1.60;;
62102;SDS011;48077;48.104;11.702;2022-10-16T01:36:48;4.53;;;1.75;;
62102;SDS011;48077;48.104;11.702;2022-10-16T01:39:16;2.75;;;1.60;;
62102;SDS011;48077;48.104;11.702;2022-10-16T01:41:46;3.00;;;1.50;;
62102;SDS011;48077;48.104;11.702;2022-10-16T01:44:19;2.55;;;1.40;;
62102;SDS011;48077;48.104;11.702;2022-10-16T01:46:48;2.67;;;1.58;;
62102;SDS011;48077;48.104;11.702;2022-10-16T01:49:14;2.22;;;1.23;;
62102;SDS011;48077;48.104;11.702;2022-10-16T01:51:40;1.67;;;1.20;;
62102;SDS011;48077;48.104;11.702;2022-10-16T01:54:07;2.83;;;1.40;;
62102;SDS011;48077;48.104;11.702;2022-10-16T01:56:31;2.83;;;1.30;;
62102;SDS011;48077;48.104;11.702;2022-10-16T01:58:58;1.83;;;1.20;;
62102;SDS011;48077;48.104;11.702;2022-10-16T02:01:24;4.82;;;1.92;;
62102;SDS011;48077;48.104;11.702;2022-10-16T02:03:52;1.90;;;1.23;;
62102;SDS011;48077;48.104;11.702;2022-10-16T02:06:19;2.65;;;1.33;;
62102;SDS011;48077;48.104;11.702;2022-10-16T02:08:43;3.08;;;1.48;;
62102;SDS011;48077;48.104;11.702;2022-10-16T02:11:07;3.22;;;1.65;;
62102;SDS011;48077;48.104;11.702;2022-10-16T02:13:36;3.08;;;1.50;;
62102;SDS011;48077;48.104;11.702;2022-10-16T02:16:01;4.93;;;1.40;;
62102;SDS011;48077;48.104;11.702;2022-10-16T02:18:25;2.65;;;1.45;;
62102;SDS011;48077;48.104;11.702;2022-10-16T02:20:53;2.90;;;1.50;;
62102;SDS011;48077;48.104;11.702;2022-10-16T02:23:24;2.53;;;1.40;;
62102;SDS011;48077;48.104;11.702;2022-10-16T02:25:57;3.08;;;1.52;;
62102;SDS011;48077;48.104;11.702;2022-10-16T02:28:24;2.47;;;1.40;;
62102;SDS011;48077;48.104;11.702;2022-10-16T02:30:56;2.17;;;1.20;;
62102;SDS011;48077;48.104;11.702;2022-10-16T02:33:22;2.35;;;1.30;;
62102;SDS011;48077;48.104;11.702;2022-10-16T02:35:48;2.55;;;1.30;;
62102;SDS011;48077;48.104;11.702;2022-10-16T02:38:14;2.45;;;1.38;;
62102;SDS011;48077;48.104;11.702;2022-10-16T02:40:38;3.40;;;1.45;;
62102;SDS011;48077;48.104;11.702;2022-10-16T02:43:03;3.17;;;1.42;;
62102;SDS011;48077;48.104;11.702;2022-10-16T02:45:27;2.70;;;1.20;;
62102;SDS011;48077;48.104;11.702;2022-10-16T02:47:52;2.40;;;1.20;;
62102;SDS011;48077;48.104;11.702;2022-10-16T02:50:15;2.70;;;1.42;;
62102;SDS011;48077;48.104;11.702;2022-10-16T02:52:39;2.58;;;1.35;;
62102;SDS011;48077;48.104;11.702;2022-10-16T02:55:02;3.97;;;1.70;;
62102;SDS011;48077;48.104;11.702;2022-10-16T02:57:26;2.85;;;1.50;;
62102;SDS011;48077;48.104;11.702;2022-10-16T02:59:49;1.70;;;1.38;;
62102;SDS011;48077;48.104;11.702;2022-10-16T03:02:13;4.13;;;1.58;;
62102;SDS011;48077;48.104;11.702;2022-10-16T03:04:36;3.00;;;1.42;;
62102;SDS011;48077;48.104;11.702;2022-10-16T03:07:00;3.22;;;1.70;;
62102;SDS011;48077;48.104;11.702;2022-10-16T03:09:23;3.85;;;1.35;;
62102;SDS011;48077;48.104;11.702;2022-10-16T03:11:47;3.53;;;1.67;;
62102;SDS011;48077;48.104;11.702;2022-10-16T03:14:10;2.90;;;1.48;;
62102;SDS011;48077;48.104;11.702;2022-10-16T03:16:33;3.75;;;1.60;;
62102;SDS011;48077;48.104;11.702;2022-10-16T03:18:57;3.42;;;1.45;;
62102;SDS011;48077;48.104;11.702;2022-10-16T03:21:20;2.92;;;1.50;;
62102;SDS011;48077;48.104;11.702;2022-10-16T03:23:43;3.28;;;1.70;;
62102;SDS011;48077;48.104;11.702;2022-10-16T03:26:07;2.47;;;1.45;;
62102;SDS011;48077;48.104;11.702;2022-10-16T03:28:30;2.03;;;1.30;;
62102;SDS011;48077;48.104;11.702;2022-10-16T03:30:53;2.67;;;1.30;;
62102;SDS011;48077;48.104;11.702;2022-10-16T03:33:17;3.78;;;1.63;;
62102;SDS011;48077;48.104;11.702;2022-10-16T03:35:40;4.30;;;1.50;;
62102;SDS011;48077;48.104;11.702;2022-10-16T03:38:04;2.72;;;1.35;;
62102;SDS011;48077;48.104;11.702;2022-10-16T03:40:27;2.20;;;1.27;;
62102;SDS011;48077;48.104;11.702;2022-10-16T03:42:50;2.08;;;1.20;;
62102;SDS011;48077;48.104;11.702;2022-10-16T03:45:14;2.70;;;1.42;;
62102;SDS011;48077;48.104;11.702;2022-10-16T03:47:37;2.78;;;1.35;;
62102;SDS011;48077;48.104;11.702;2022-10-16T03:50:01;3.85;;;1.55;;
62102;SDS011;48077;48.104;11.702;2022-10-16T03:52:24;1.90;;;1.10;;
62102;SDS011;48077;48.104;11.702;2022-10-16T03:54:47;2.65;;;1.40;;
62102;SDS011;48077;48.104;11.702;2022-10-16T03:57:11;2.72;;;1.30;;
62102;SDS011;48077;48.104;11.702;2022-10-16T03:59:34;3.58;;;1.60;;
62102;SDS011;48077;48.104;11.702;2022-10-16T04:01:58;2.28;;;1.40;;
62102;SDS011;48077;48.104;11.702;2022-10-16T04:04:21;1.90;;;1.23;;
62102;SDS011;48077;48.104;11.702;2022-10-16T04:06:45;3.17;;;1.38;;
62102;SDS011;48077;48.104;11.702;2022-10-16T04:09:08;2.33;;;1.40;;
62102;SDS011;48077;48.104;11.702;2022-10-16T04:11:31;2.85;;;1.50;;
62102;SDS011;48077;48.104;11.702;2022-10-16T04:13:55;3.33;;;1.67;;
62102;SDS011;48077;48.104;11.702;2022-10-16T04:16:18;1.83;;;1.20;;
62102;SDS011;48077;48.104;11.702;2022-10-16T04:18:41;3.85;;;1.55;;
62102;SDS011;48077;48.104;11.702;2022-10-16T04:21:05;2.63;;;1.45;;
62102;SDS011;48077;48.104;11.702;2022-10-16T04:23:29;3.38;;;1.45;;
62102;SDS011;48077;48.104;11.702;2022-10-16T04:25:52;2.97;;;1.40;;
62102;SDS011;48077;48.104;11.702;2022-10-16T04:28:16;3.28;;;1.63;;
62102;SDS011;48077;48.104;11.702;2022-10-16T04:30:39;2.40;;;1.27;;
62102;SDS011;48077;48.104;11.702;2022-10-16T04:33:05;2.45;;;1.45;;
62102;SDS011;48077;48.104;11.702;2022-10-16T04:35:28;2.00;;;1.40;;
62102;SDS011;48077;48.104;11.702;2022-10-16T04:37:52;4.05;;;1.67;;
62102;SDS011;48077;48.104;11.702;2022-10-16T04:40:15;2.47;;;1.45;;
62102;SDS011;48077;48.104;11.702;2022-10-16T04:42:39;3.42;;;1.40;;
62102;SDS011;48077;48.104;11.702;2022-10-16T04:45:03;4.53;;;1.98;;
62102;SDS011;48077;48.104;11.702;2022-10-16T04:47:27;4.57;;;1.75;;
62102;SDS011;48077;48.104;11.702;2022-10-16T04:49:51;3.38;;;1.67;;
62102;SDS011;48077;48.104;11.702;2022-10-16T04:52:14;2.83;;;1.65;;
62102;SDS011;48077;48.104;11.702;2022-10-16T04:54:38;2.55;;;1.42;;
62102;SDS011;48077;48.104;11.702;2022-10-16T04:57:01;5.13;;;1.80;;
62102;SDS011;48077;48.104;11.702;2022-10-16T04:59:25;3.63;;;1.90;;
62102;SDS011;48077;48.104;11.702;2022-10-16T05:01:48;2.83;;;1.85;;
62102;SDS011;48077;48.104;11.702;2022-10-16T05:04:12;3.65;;;1.90;;
62102;SDS011;48077;48.104;11.702;2022-10-16T05:06:35;3.53;;;1.60;;
62102;SDS011;48077;48.104;11.702;2022-10-16T05:08:59;4.63;;;2.50;;
62102;SDS011;48077;48.104;11.702;2022-10-16T05:11:23;2.65;;;1.58;;
62102;SDS011;48077;48.104;11.702;2022-10-16T05:13:46;4.07;;;2.00;;
62102;SDS011;48077;48.104;11.702;2022-10-16T05:16:12;3.75;;;2.00;;
62102;SDS011;48077;48.104;11.702;2022-10-16T05:18:35;2.78;;;1.60;;
62102;SDS011;48077;48.104;11.702;2022-10-16T05:20:59;6.07;;;1.65;;
62102;SDS011;48077;48.104;11.702;2022-10-16T05:23:22;3.60;;;1.77;;
62102;SDS011;48077;48.104;11.702;2022-10-16T05:25:52;5.10;;;1.75;;
62102;SDS011;48077;48.104;11.702;2022-10-16T05:28:21;3.05;;;1.90;;
62102;SDS011;48077;48.104;11.702;2022-10-16T05:30:44;3.22;;;1.85;;
62102;SDS011;48077;48.104;11.702;2022-10-16T05:33:07;4.93;;;2.08;;
62102;SDS011;48077;48.104;11.702;2022-10-16T05:35:31;4.28;;;2.13;;
62102;SDS011;48077;48.104;11.702;2022-10-16T05:37:54;5.57;;;2.35;;
62102;SDS011;48077;48.104;11.702;2022-10-16T05:40:18;3.28;;;1.95;;
62102;SDS011;48077;48.104;11.702;2022-10-16T05:42:41;5.28;;;2.20;;
62102;SDS011;48077;48.104;11.702;2022-10-16T05:45:05;6.15;;;2.65;;
62102;SDS011;48077;48.104;11.702;2022-10-16T05:47:29;4.47;;;2.15;;
62102;SDS011;48077;48.104;11.702;2022-10-16T05:49:53;2.85;;;1.85;;
62102;SDS011;48077;48.104;11.702;2022-10-16T05:52:16;4.88;;;2.08;;
62102;SDS011;48077;48.104;11.702;2022-10-16T05:54:40;3.00;;;1.90;;
62102;SDS011;48077;48.104;11.702;2022-10-16T05:57:03;3.17;;;1.80;;
62102;SDS011;48077;48.104;11.702;2022-10-16T05:59:28;4.10;;;1.77;;
62102;SDS011;48077;48.104;11.702;2022-10-16T06:01:51;3.72;;;1.90;;
62102;SDS011;48077;48.104;11.702;2022-10-16T06:04:16;2.50;;;1.80;;
62102;SDS011;48077;48.104;11.702;2022-10-16T06:06:39;4.70;;;1.80;;
62102;SDS011;48077;48.104;11.702;2022-10-16T06:09:03;2.88;;;1.63;;
62102;SDS011;48077;48.104;11.702;2022-10-16T06:11:27;2.55;;;1.55;;
62102;SDS011;48077;48.104;11.702;2022-10-16T06:13:53;1.85;;;1.25;;
62102;SDS011;48077;48.104;11.702;2022-10-16T06:16:19;4.80;;;1.85;;
62102;SDS011;48077;48.104;11.702;2022-10-16T06:18:43;3.50;;;1.95;;
62102;SDS011;48077;48.104;11.702;2022-10-16T06:21:10;4.90;;;2.30;;
62102;SDS011;48077;48.104;11.702;2022-10-16T06:23:36;5.30;;;1.95;;
62102;SDS011;48077;48.104;11.702;2022-10-16T06:26:10;2.90;;;1.80;;
62102;SDS011;48077;48.104;11.702;2022-10-16T06:28:35;3.65;;;1.80;;
62102;SDS011;48077;48.104;11.702;2022-10-16T06:30:59;3.50;;;2.20;;
62102;SDS011;48077;48.104;11.702;2022-10-16T06:33:23;4.68;;;2.15;;
62102;SDS011;48077;48.104;11.702;2022-10-16T06:35:46;2.90;;;1.63;;
62102;SDS011;48077;48.104;11.702;2022-10-16T06:38:10;2.95;;;2.00;;
62102;SDS011;48077;48.104;11.702;2022-10-16T06:40:33;2.50;;;1.65;;
62102;SDS011;48077;48.104;11.702;2022-10-16T06:42:56;2.95;;;1.85;;
62102;SDS011;48077;48.104;11.702;2022-10-16T06:45:20;2.47;;;1.67;;
62102;SDS011;48077;48.104;11.702;2022-10-16T06:47:43;2.83;;;1.70;;
62102;SDS011;48077;48.104;11.702;2022-10-16T06:50:06;2.85;;;1.92;;
62102;SDS011;48077;48.104;11.702;2022-10-16T06:52:30;2.28;;;1.50;;
62102;SDS011;48077;48.104;11.702;2022-10-16T06:54:53;2.40;;;1.75;;
62102;SDS011;48077;48.104;11.702;2022-10-16T06:57:17;2.42;;;1.48;;
62102;SDS011;48077;48.104;11.702;2022-10-16T06:59:40;3.60;;;1.73;;
62102;SDS011;48077;48.104;11.702;2022-10-16T07:02:04;3.22;;;1.88;;
62102;SDS011;48077;48.104;11.702;2022-10-16T07:04:27;2.85;;;1.73;;
62102;SDS011;48077;48.104;11.702;2022-10-16T07:06:50;3.13;;;1.80;;
62102;SDS011;48077;48.104;11.702;2022-10-16T07:09:14;4.88;;;2.20;;
62102;SDS011;48077;48.104;11.702;2022-10-16T07:11:38;4.57;;;2.30;;
62102;SDS011;48077;48.104;11.702;2022-10-16T07:14:03;5.10;;;2.47;;
62102;SDS011;48077;48.104;11.702;2022-10-16T07:16:27;3.63;;;1.90;;
62102;SDS011;48077;48.104;11.702;2022-10-16T07:18:53;4.55;;;2.05;;
62102;SDS011;48077;48.104;11.702;2022-10-16T07:21:21;5.10;;;2.30;;
62102;SDS011;48077;48.104;11.702;2022-10-16T07:23:45;2.97;;;1.88;;
62102;SDS011;48077;48.104;11.702;2022-10-16T07:26:13;3.58;;;2.00;;
62102;SDS011;48077;48.104;11.702;2022-10-16T07:28:37;4.05;;;2.22;;
62102;SDS011;48077;48.104;11.702;2022-10-16T07:31:03;3.35;;;1.95;;
62102;SDS011;48077;48.104;11.702;2022-10-16T07:33:28;3.72;;;2.08;;
62102;SDS011;48077;48.104;11.702;2022-10-16T07:35:52;3.83;;;2.20;;
62102;SDS011;48077;48.104;11.702;2022-10-16T07:38:17;6.43;;;2.80;;
62102;SDS011;48077;48.104;11.702;2022-10-16T07:40:41;3.80;;;2.10;;
62102;SDS011;48077;48.104;11.702;2022-10-16T07:43:04;5.72;;;2.58;;
62102;SDS011;48077;48.104;11.702;2022-10-16T07:45:28;3.83;;;2.35;;
62102;SDS011;48077;48.104;11.702;2022-10-16T07:47:51;3.78;;;2.45;;
62102;SDS011;48077;48.104;11.702;2022-10-16T07:50:15;5.78;;;2.42;;
62102;SDS011;48077;48.104;11.702;2022-10-16T07:52:38;3.75;;;2.08;;
62102;SDS011;48077;48.104;11.702;2022-10-16T07:55:01;3.38;;;1.95;;
62102;SDS011;48077;48.104;11.702;2022-10-16T07:57:26;5.35;;;1.92;;
62102;SDS011;48077;48.104;11.702;2022-10-16T07:59:49;4.13;;;2.30;;
62102;SDS011;48077;48.104;11.702;2022-10-16T08:02:12;3.20;;;2.00;;
62102;SDS011;48077;48.104;11.702;2022-10-16T08:04:36;4.25;;;2.38;;
62102;SDS011;48077;48.104;11.702;2022-10-16T08:06:59;4.15;;;2.22;;
62102;SDS011;48077;48.104;11.702;2022-10-16T08:09:22;4.65;;;2.40;;
62102;SDS011;48077;48.104;11.702;2022-10-16T08:11:46;4.25;;;2.38;;
62102;SDS011;48077;48.104;11.702;2022-10-16T08:14:09;6.00;;;2.80;;
62102;SDS011;48077;48.104;11.702;2022-10-16T08:16:33;4.75;;;2.22;;
62102;SDS011;48077;48.104;11.702;2022-10-16T08:18:56;4.03;;;2.20;;
62102;SDS011;48077;48.104;11.702;2022-10-16T08:21:20;3.35;;;2.05;;
62102;SDS011;48077;48.104;11.702;2022-10-16T08:23:45;3.65;;;2.03;;
62102;SDS011;48077;48.104;11.702;2022-10-16T08:26:09;4.25;;;2.13;;
62102;SDS011;48077;48.104;11.702;2022-10-16T08:28:33;2.90;;;1.92;;
62102;SDS011;48077;48.104;11.702;2022-10-16T08:31:05;3.72;;;1.98;;
62102;SDS011;48077;48.104;11.702;2022-10-16T08:33:30;2.25;;;1.70;;
62102;SDS011;48077;48.104;11.702;2022-10-16T08:35:53;4.20;;;1.65;;
62102;SDS011;48077;48.104;11.702;2022-10-16T08:38:17;3.60;;;1.75;;
62102;SDS011;48077;48.104;11.702;2022-10-16T08:40:41;3.65;;;1.90;;
62102;SDS011;48077;48.104;11.702;2022-10-16T08:48:46;3.90;;;2.30;;
62102;SDS011;48077;48.104;11.702;2022-10-16T08:51:18;4.72;;;2.63;;
62102;SDS011;48077;48.104;11.702;2022-10-16T08:56:20;3.03;;;1.90;;
62102;SDS011;48077;48.104;11.702;2022-10-16T08:58:44;3.95;;;1.90;;
62102;SDS011;48077;48.104;11.702;2022-10-16T09:01:12;3.97;;;1.92;;
62102;SDS011;48077;48.104;11.702;2022-10-16T09:06:42;2.25;;;1.83;;
62102;SDS011;48077;48.104;11.702;2022-10-16T09:09:16;2.95;;;1.75;;
62102;SDS011;48077;48.104;11.702;2022-10-16T09:11:57;3.80;;;2.17;;
62102;SDS011;48077;48.104;11.702;2022-10-16T09:17:51;3.72;;;2.03;;
62102;SDS011;48077;48.104;11.702;2022-10-16T09:22:53;3.58;;;1.85;;
62102;SDS011;48077;48.104;11.702;2022-10-16T09:25:31;2.15;;;1.60;;
62102;SDS011;48077;48.104;11.702;2022-10-16T09:27:56;2.83;;;1.67;;
62102;SDS011;48077;48.104;11.702;2022-10-16T09:30:20;9.55;;;3.65;;
62102;SDS011;48077;48.104;11.702;2022-10-16T09:32:47;4.53;;;2.53;;
62102;SDS011;48077;48.104;11.702;2022-10-16T09:35:14;4.20;;;2.70;;
62102;SDS011;48077;48.104;11.702;2022-10-16T09:37:40;4.60;;;1.65;;
62102;SDS011;48077;48.104;11.702;2022-10-16T09:40:06;3.00;;;1.70;;
62102;SDS011;48077;48.104;11.702;2022-10-16T09:42:31;3.95;;;2.28;;
62102;SDS011;48077;48.104;11.702;2022-10-16T09:44:58;2.58;;;1.83;;
62102;SDS011;48077;48.104;11.702;2022-10-16T09:47:25;2.05;;;1.40;;
62102;SDS011;48077;48.104;11.702;2022-10-16T09:52:18;3.47;;;2.17;;
62102;SDS011;48077;48.104;11.702;2022-10-16T09:54:55;2.75;;;1.70;;
62102;SDS011;48077;48.104;11.702;2022-10-16T09:57:20;4.25;;;2.30;;
62102;SDS011;48077;48.104;11.702;2022-10-16T09:59:51;5.05;;;2.10;;
62102;SDS011;48077;48.104;11.702;2022-10-16T10:02:18;3.53;;;2.20;;
62102;SDS011;48077;48.104;11.702;2022-10-16T10:04:50;3.20;;;2.20;;
62102;SDS011;48077;48.104;11.702;2022-10-16T10:07:18;3.28;;;2.08;;
62102;SDS011;48077;48.104;11.702;2022-10-16T10:09:46;3.88;;;2.15;;
62102;SDS011;48077;48.104;11.702;2022-10-16T10:15:07;2.63;;;1.63;;
62102;SDS011;48077;48.104;11.702;2022-10-16T10:17:44;3.22;;;1.90;;
62102;SDS011;48077;48.104;11.702;2022-10-16T10:22:52;2.90;;;1.70;;
62102;SDS011;48077;48.104;11.702;2022-10-16T10:25:36;3.20;;;1.92;;
62102;SDS011;48077;48.104;11.702;2022-10-16T10:31:00;4.25;;;2.25;;
62102;SDS011;48077;48.104;11.702;2022-10-16T10:38:59;3.20;;;2.25;;
62102;SDS011;48077;48.104;11.702;2022-10-16T10:41:35;2.97;;;1.77;;
62102;SDS011;48077;48.104;11.702;2022-10-16T10:58:19;3.08;;;1.95;;
62102;SDS011;48077;48.104;11.702;2022-10-16T11:00:57;2.25;;;1.85;;
62102;SDS011;48077;48.104;11.702;2022-10-16T11:06:20;2.05;;;1.60;;
62102;SDS011;48077;48.104;11.702;2022-10-16T11:08:53;2.80;;;1.50;;
62102;SDS011;48077;48.104;11.702;2022-10-16T11:11:31;2.58;;;1.60;;
62102;SDS011;48077;48.104;11.702;2022-10-16T11:13:58;3.33;;;1.77;;
62102;SDS011;48077;48.104;11.702;2022-10-16T11:19:05;2.55;;;1.45;;
62102;SDS011;48077;48.104;11.702;2022-10-16T11:22:06;2.08;;;1.20;;
62102;SDS011;48077;48.104;11.702;2022-10-16T11:24:55;1.63;;;1.30;;
62102;SDS011;48077;48.104;11.702;2022-10-16T11:27:37;1.50;;;1.20;;
62102;SDS011;48077;48.104;11.702;2022-10-16T11:30:06;1.70;;;1.42;;
62102;SDS011;48077;48.104;11.702;2022-10-16T11:32:46;2.42;;;1.58;;
62102;SDS011;48077;48.104;11.702;2022-10-16T11:35:18;2.97;;;1.30;;
62102;SDS011;48077;48.104;11.702;2022-10-16T11:37:46;2.97;;;1.60;;
62102;SDS011;48077;48.104;11.702;2022-10-16T11:42:48;1.85;;;1.30;;
62102;SDS011;48077;48.104;11.702;2022-10-16T11:45:24;2.55;;;1.40;;
62102;SDS011;48077;48.104;11.702;2022-10-16T11:50:43;1.85;;;1.40;;
62102;SDS011;48077;48.104;11.702;2022-10-16T11:53:23;1.80;;;1.38;;
62102;SDS011;48077;48.104;11.702;2022-10-16T11:55:53;1.63;;;1.30;;
62102;SDS011;48077;48.104;11.702;2022-10-16T11:58:20;3.10;;;1.70;;
62102;SDS011;48077;48.104;11.702;2022-10-16T12:03:24;3.03;;;1.35;;
62102;SDS011;48077;48.104;11.702;2022-10-16T12:06:27;1.98;;;1.45;;
62102;SDS011;48077;48.104;11.702;2022-10-16T12:11:46;2.03;;;1.40;;
62102;SDS011;48077;48.104;11.702;2022-10-16T12:16:33;1.75;;;1.33;;
62102;SDS011;48077;48.104;11.702;2022-10-16T12:19:30;1.52;;;1.23;;
62102;SDS011;48077;48.104;11.702;2022-10-16T12:21:48;2.28;;;1.17;;
62102;SDS011;48077;48.104;11.702;2022-10-16T12:27:05;1.88;;;1.50;;
62102;SDS011;48077;48.104;11.702;2022-10-16T12:29:44;4.10;;;1.77;;
62102;SDS011;48077;48.104;11.702;2022-10-16T12:34:52;3.10;;;1.40;;
62102;SDS011;48077;48.104;11.702;2022-10-16T12:37:26;2.55;;;1.48;;
62102;SDS011;48077;48.104;11.702;2022-10-16T12:39:54;3.90;;;1.65;;
62102;SDS011;48077;48.104;11.702;2022-10-16T12:44:48;1.13;;;1.02;;
62102;SDS011;48077;48.104;11.702;2022-10-16T12:47:47;1.20;;;1.10;;
62102;SDS011;48077;48.104;11.702;2022-10-16T12:52:49;1.38;;;1.20;;
62102;SDS011;48077;48.104;11.702;2022-10-16T12:55:15;1.70;;;1.30;;
62102;SDS011;48077;48.104;11.702;2022-10-16T13:00:24;1.55;;;1.10;;
62102;SDS011;48077;48.104;11.702;2022-10-16T13:10:50;1.80;;;1.10;;
62102;SDS011;48077;48.104;11.702;2022-10-16T13:13:35;1.55;;;1.25;;
62102;SDS011;48077;48.104;11.702;2022-10-16T13:26:58;1.58;;;1.10;;
62102;SDS011;48077;48.104;11.702;2022-10-16T13:29:31;2.22;;;0.98;;
62102;SDS011;48077;48.104;11.702;2022-10-16T13:31:58;2.15;;;1.10;;
62102;SDS011;48077;48.104;11.702;2022-10-16T13:34:23;3.88;;;1.17;;
62102;SDS011;48077;48.104;11.702;2022-10-16T13:36:49;1.48;;;0.93;;
62102;SDS011;48077;48.104;11.702;2022-10-16T13:39:16;1.10;;;1.00;;
62102;SDS011;48077;48.104;11.702;2022-10-16T13:44:23;1.10;;;1.00;;
62102;SDS011;48077;48.104;11.702;2022-10-16T13:46:46;1.10;;;1.00;;
62102;SDS011;48077;48.104;11.702;2022-10-16T13:49:14;1.73;;;1.10;;
62102;SDS011;48077;48.104;11.702;2022-10-16T13:51:38;1.55;;;1.25;;
62102;SDS011;48077;48.104;11.702;2022-10-16T13:54:02;1.25;;;1.00;;
62102;SDS011;48077;48.104;11.702;2022-10-16T13:56:27;1.35;;;1.05;;
62102;SDS011;48077;48.104;11.702;2022-10-16T13:59:05;2.13;;;1.27;;
62102;SDS011;48077;48.104;11.702;2022-10-16T14:01:44;1.70;;;1.15;;
62102;SDS011;48077;48.104;11.702;2022-10-16T14:04:09;1.33;;;1.00;;
62102;SDS011;48077;48.104;11.702;2022-10-16T14:06:35;2.42;;;1.15;;
62102;SDS011;48077;48.104;11.702;2022-10-16T14:09:07;1.08;;;0.90;;
62102;SDS011;48077;48.104;11.702;2022-10-16T14:11:32;1.45;;;0.90;;
62102;SDS011;48077;48.104;11.702;2022-10-16T14:13:59;1.95;;;1.10;;
62102;SDS011;48077;48.104;11.702;2022-10-16T14:16:25;1.55;;;1.13;;
62102;SDS011;48077;48.104;11.702;2022-10-16T14:18:59;1.38;;;1.10;;
62102;SDS011;48077;48.104;11.702;2022-10-16T14:21:25;1.30;;;0.90;;
62102;SDS011;48077;48.104;11.702;2022-10-16T14:23:49;1.73;;;0.98;;
62102;SDS011;48077;48.104;11.702;2022-10-16T14:26:17;3.78;;;1.05;;
62102;SDS011;48077;48.104;11.702;2022-10-16T14:28:42;1.08;;;0.85;;
62102;SDS011;48077;48.104;11.702;2022-10-16T14:33:42;1.75;;;1.20;;
62102;SDS011;48077;48.104;11.702;2022-10-16T14:38:32;1.50;;;1.10;;
62102;SDS011;48077;48.104;11.702;2022-10-16T14:40:56;1.48;;;0.98;;
62102;SDS011;48077;48.104;11.702;2022-10-16T14:43:31;1.50;;;1.20;;
62102;SDS011;48077;48.104;11.702;2022-10-16T14:46:07;5.57;;;1.60;;
62102;SDS011;48077;48.104;11.702;2022-10-16T14:48:36;1.50;;;1.02;;
62102;SDS011;48077;48.104;11.702;2022-10-16T14:51:05;1.35;;;1.25;;
62102;SDS011;48077;48.104;11.702;2022-10-16T14:53:31;1.80;;;1.08;;
62102;SDS011;48077;48.104;11.702;2022-10-16T14:55:55;1.92;;;1.20;;
62102;SDS011;48077;48.104;11.702;2022-10-16T14:58:19;2.88;;;1.15;;
62102;SDS011;48077;48.104;11.702;2022-10-16T15:00:45;2.13;;;1.42;;
62102;SDS011;48077;48.104;11.702;2022-10-16T15:03:08;1.85;;;1.20;;
62102;SDS011;48077;48.104;11.702;2022-10-16T15:05:32;2.33;;;1.38;;
62102;SDS011;48077;48.104;11.702;2022-10-16T15:07:55;2.00;;;1.42;;
62102;SDS011;48077;48.104;11.702;2022-10-16T15:10:19;1.80;;;1.30;;
62102;SDS011;48077;48.104;11.702;2022-10-16T15:12:47;1.60;;;1.17;;
62102;SDS011;48077;48.104;11.702;2022-10-16T15:17:47;1.98;;;1.35;;
62102;SDS011;48077;48.104;11.702;2022-10-16T15:20:11;2.13;;;1.20;;
62102;SDS011;48077;48.104;11.702;2022-10-16T15:22:35;1.95;;;1.10;;
62102;SDS011;48077;48.104;11.702;2022-10-16T15:24:58;1.80;;;1.10;;
62102;SDS011;48077;48.104;11.702;2022-10-16T15:27:23;1.48;;;1.02;;
62102;SDS011;48077;48.104;11.702;2022-10-16T15:29:47;1.13;;;0.80;;
62102;SDS011;48077;48.104;11.702;2022-10-16T15:32:10;1.58;;;1.10;;
62102;SDS011;48077;48.104;11.702;2022-10-16T15:34:34;2.33;;;1.23;;
62102;SDS011;48077;48.104;11.702;2022-10-16T15:36:57;2.53;;;1.40;;
62102;SDS011;48077;48.104;11.702;2022-10-16T15:39:22;1.92;;;1.30;;
62102;SDS011;48077;48.104;11.702;2022-10-16T15:41:46;2.38;;;1.20;;
62102;SDS011;48077;48.104;11.702;2022-10-16T15:44:13;3.53;;;1.30;;
62102;SDS011;48077;48.104;11.702;2022-10-16T15:46:37;1.75;;;1.10;;
62102;SDS011;48077;48.104;11.702;2022-10-16T15:49:00;1.70;;;1.30;;
62102;SDS011;48077;48.104;11.702;2022-10-16T15:51:24;2.33;;;1.38;;
62102;SDS011;48077;48.104;11.702;2022-10-16T15:53:50;1.85;;;1.25;;
62102;SDS011;48077;48.104;11.702;2022-10-16T15:56:14;2.60;;;1.30;;
62102;SDS011;48077;48.104;11.702;2022-10-16T15:58:37;2.35;;;1.45;;
62102;SDS011;48077;48.104;11.702;2022-10-16T16:01:01;2.83;;;1.20;;
62102;SDS011;48077;48.104;11.702;2022-10-16T16:03:26;2.20;;;1.50;;
62102;SDS011;48077;48.104;11.702;2022-10-16T16:05:50;2.38;;;1.30;;
62102;SDS011;48077;48.104;11.702;2022-10-16T16:08:13;2.22;;;1.30;;
62102;SDS011;48077;48.104;11.702;2022-10-16T16:10:37;2.47;;;1.60;;
62102;SDS011;48077;48.104;11.702;2022-10-16T16:13:00;2.83;;;1.67;;
62102;SDS011;48077;48.104;11.702;2022-10-16T16:15:24;1.90;;;1.20;;
62102;SDS011;48077;48.104;11.702;2022-10-16T16:17:47;1.73;;;1.23;;
62102;SDS011;48077;48.104;11.702;2022-10-16T16:20:11;3.40;;;1.40;;
62102;SDS011;48077;48.104;11.702;2022-10-16T16:22:35;2.97;;;1.50;;